sensor_id;sensor_type;location;lat;lon;timestamp;pressure;altitude;pressure_sealevel;temperature;humidity
37972;BME280;23794;48.234;8.344;2022-12-07T00:01:04;94244.69;;;1.42;76.92
37972;BME280;23794;48.234;8.344;2022-12-07T00:03:31;94248.81;;;1.39;77.22
37972;BME280;23794;48.234;8.344;2022-12-07T00:05:59;94246.22;;;1.43;77.09
37972;BME280;23794;48.234;8.344;2022-12-07T00:08:26;94243.97;;;1.45;77.16
37972;BME280;23794;48.234;8.344;2022-12-07T00:10:53;94235.97;;;1.48;77.00
37972;BME280;23794;48.234;8.344;2022-12-07T00:13:20;94238.00;;;1.51;76.81
37972;BME280;23794;48.234;8.344;2022-12-07T00:15:46;94232.41;;;1.44;77.20
37972;BME280;23794;48.234;8.344;2022-12-07T00:18:13;94236.78;;;1.49;76.95
37972;BME280;23794;48.234;8.344;2022-12-07T00:20:39;94236.44;;;1.38;77.33
37972;BME280;23794;48.234;8.344;2022-12-07T00:23:06;94236.34;;;1.47;77.10
37972;BME280;23794;48.234;8.344;2022-12-07T00:25:32;94233.38;;;1.52;76.97
37972;BME280;23794;48.234;8.344;2022-12-07T00:27:59;94232.59;;;1.51;76.93
37972;BME280;23794;48.234;8.344;2022-12-07T00:30:26;94230.59;;;1.48;77.22
37972;BME280;23794;48.234;8.344;2022-12-07T00:32:52;94229.59;;;1.41;77.50
37972;BME280;23794;48.234;8.344;2022-12-07T00:35:19;94230.81;;;1.43;77.89
37972;BME280;23794;48.234;8.344;2022-12-07T00:37:45;94220.03;;;1.43;77.86
37972;BME280;23794;48.234;8.344;2022-12-07T00:40:12;94224.31;;;1.44;77.45
37972;BME280;23794;48.234;8.344;2022-12-07T00:42:38;94218.91;;;1.44;77.79
37972;BME280;23794;48.234;8.344;2022-12-07T00:45:05;94218.81;;;1.41;78.08
37972;BME280;23794;48.234;8.344;2022-12-07T00:47:32;94215.31;;;1.40;77.94
37972;BME280;23794;48.234;8.344;2022-12-07T00:49:59;94212.38;;;1.45;77.94
37972;BME280;23794;48.234;8.344;2022-12-07T00:52:27;94216.53;;;1.43;78.14
37972;BME280;23794;48.234;8.344;2022-12-07T00:54:53;94213.41;;;1.41;78.04
37972;BME280;23794;48.234;8.344;2022-12-07T00:57:20;94209.91;;;1.40;78.21
37972;BME280;23794;48.234;8.344;2022-12-07T00:59:46;94209.81;;;1.36;78.32
37972;BME280;23794;48.234;8.344;2022-12-07T01:02:14;94206.34;;;1.36;78.34
37972;BME280;23794;48.234;8.344;2022-12-07T01:04:40;94218.69;;;1.37;78.36
37972;BME280;23794;48.234;8.344;2022-12-07T01:07:07;94222.06;;;1.34;78.48
37972;BME280;23794;48.234;8.344;2022-12-07T01:09:34;94217.13;;;1.24;79.13
37972;BME280;23794;48.234;8.344;2022-12-07T01:12:01;94212.66;;;1.28;78.72
37972;BME280;23794;48.234;8.344;2022-12-07T01:14:29;94212.28;;;1.29;79.09
37972;BME280;23794;48.234;8.344;2022-12-07T01:16:56;94216.13;;;1.28;78.86
37972;BME280;23794;48.234;8.344;2022-12-07T01:19:23;94220.84;;;1.31;78.65
37972;BME280;23794;48.234;8.344;2022-12-07T01:21:49;94226.81;;;1.25;79.17
37972;BME280;23794;48.234;8.344;2022-12-07T01:24:16;94224.22;;;1.28;79.17
37972;BME280;23794;48.234;8.344;2022-12-07T01:26:42;94225.78;;;1.29;79.57
37972;BME280;23794;48.234;8.344;2022-12-07T01:29:09;94218.91;;;1.32;79.59
37972;BME280;23794;48.234;8.344;2022-12-07T01:31:35;94215.91;;;1.33;79.34
37972;BME280;23794;48.234;8.344;2022-12-07T01:34:04;94227.47;;;1.34;79.23
37972;BME280;23794;48.234;8.344;2022-12-07T01:36:34;94226.00;;;1.36;78.78
37972;BME280;23794;48.234;8.344;2022-12-07T01:39:04;94225.78;;;1.29;78.98
37972;BME280;23794;48.234;8.344;2022-12-07T01:41:35;94234.69;;;1.17;79.64
37972;BME280;23794;48.234;8.344;2022-12-07T01:44:21;94222.22;;;1.25;79.40
37972;BME280;23794;48.234;8.344;2022-12-07T01:46:59;94230.97;;;1.22;79.50
37972;BME280;23794;48.234;8.344;2022-12-07T01:49:48;94230.16;;;1.34;79.25
37972;BME280;23794;48.234;8.344;2022-12-07T01:52:21;94226.69;;;1.33;78.77
37972;BME280;23794;48.234;8.344;2022-12-07T01:54:52;94235.00;;;1.28;79.24
37972;BME280;23794;48.234;8.344;2022-12-07T01:57:20;94232.88;;;1.34;78.85
37972;BME280;23794;48.234;8.344;2022-12-07T01:59:49;94231.03;;;1.38;78.55
37972;BME280;23794;48.234;8.344;2022-12-07T02:02:27;94235.22;;;1.35;78.84
37972;BME280;23794;48.234;8.344;2022-12-07T02:04:57;94229.50;;;1.25;78.78
37972;BME280;23794;48.234;8.344;2022-12-07T02:07:25;94226.38;;;1.22;79.28
37972;BME280;23794;48.234;8.344;2022-12-07T02:09:53;94229.19;;;1.26;78.79
37972;BME280;23794;48.234;8.344;2022-12-07T02:15:15;94232.41;;;1.32;79.15
37972;BME280;23794;48.234;8.344;2022-12-07T02:17:51;94232.53;;;1.35;78.80
37972;BME280;23794;48.234;8.344;2022-12-07T02:20:31;94230.41;;;1.29;78.51
37972;BME280;23794;48.234;8.344;2022-12-07T02:31:44;94234.13;;;1.12;79.62
37972;BME280;23794;48.234;8.344;2022-12-07T02:34:20;94229.75;;;1.19;79.60
37972;BME280;23794;48.234;8.344;2022-12-07T02:36:53;94233.00;;;1.25;79.10
37972;BME280;23794;48.234;8.344;2022-12-07T02:39:37;94237.38;;;1.30;78.78
37972;BME280;23794;48.234;8.344;2022-12-07T02:42:15;94238.19;;;1.18;79.45
37972;BME280;23794;48.234;8.344;2022-12-07T02:44:45;94238.09;;;1.14;79.00
37972;BME280;23794;48.234;8.344;2022-12-07T02:47:15;94234.72;;;1.05;79.15
37972;BME280;23794;48.234;8.344;2022-12-07T02:49:43;94236.50;;;1.13;79.26
37972;BME280;23794;48.234;8.344;2022-12-07T02:52:10;94229.44;;;1.09;79.25
37972;BME280;23794;48.234;8.344;2022-12-07T02:54:36;94230.44;;;1.04;79.26
37972;BME280;23794;48.234;8.344;2022-12-07T03:02:38;94228.19;;;1.18;79.21
37972;BME280;23794;48.234;8.344;2022-12-07T03:11:03;94224.38;;;1.07;79.27
37972;BME280;23794;48.234;8.344;2022-12-07T03:16:27;94227.41;;;1.05;79.39
37972;BME280;23794;48.234;8.344;2022-12-07T03:18:58;94225.16;;;1.08;78.79
37972;BME280;23794;48.234;8.344;2022-12-07T03:21:31;94219.09;;;0.98;79.02
37972;BME280;23794;48.234;8.344;2022-12-07T03:24:00;94217.75;;;0.92;80.04
37972;BME280;23794;48.234;8.344;2022-12-07T03:26:34;94216.84;;;1.00;80.01
37972;BME280;23794;48.234;8.344;2022-12-07T03:29:07;94215.63;;;0.98;79.42
37972;BME280;23794;48.234;8.344;2022-12-07T03:31:40;94212.00;;;0.94;79.39
37972;BME280;23794;48.234;8.344;2022-12-07T03:34:16;94226.09;;;0.87;79.41
37972;BME280;23794;48.234;8.344;2022-12-07T03:36:54;94222.47;;;0.83;79.83
37972;BME280;23794;48.234;8.344;2022-12-07T03:39:29;94224.97;;;0.88;79.62
37972;BME280;23794;48.234;8.344;2022-12-07T03:42:00;94219.22;;;0.89;79.50
37972;BME280;23794;48.234;8.344;2022-12-07T03:44:29;94219.44;;;0.97;79.16
37972;BME280;23794;48.234;8.344;2022-12-07T03:49:55;94216.63;;;0.93;79.47
37972;BME280;23794;48.234;8.344;2022-12-07T03:52:40;94217.09;;;0.83;79.64
37972;BME280;23794;48.234;8.344;2022-12-07T03:55:39;94208.53;;;0.93;79.11
37972;BME280;23794;48.234;8.344;2022-12-07T03:58:16;94216.97;;;0.92;78.90
37972;BME280;23794;48.234;8.344;2022-12-07T04:00:46;94218.41;;;0.89;78.98
37972;BME280;23794;48.234;8.344;2022-12-07T04:03:12;94210.47;;;0.93;78.83
37972;BME280;23794;48.234;8.344;2022-12-07T04:05:39;94211.59;;;0.92;78.90
37972;BME280;23794;48.234;8.344;2022-12-07T04:08:07;94207.63;;;0.89;79.44
37972;BME280;23794;48.234;8.344;2022-12-07T04:10:33;94210.22;;;0.85;79.63
37972;BME280;23794;48.234;8.344;2022-12-07T04:13:00;94208.44;;;0.89;78.99
37972;BME280;23794;48.234;8.344;2022-12-07T04:15:27;94210.69;;;0.87;78.61
37972;BME280;23794;48.234;8.344;2022-12-07T04:17:54;94210.47;;;0.80;79.43
37972;BME280;23794;48.234;8.344;2022-12-07T04:20:21;94215.09;;;0.80;79.78
37972;BME280;23794;48.234;8.344;2022-12-07T04:22:48;94209.00;;;0.83;79.13
37972;BME280;23794;48.234;8.344;2022-12-07T04:25:15;94211.81;;;0.74;79.74
37972;BME280;23794;48.234;8.344;2022-12-07T04:27:41;94212.03;;;0.81;79.96
37972;BME280;23794;48.234;8.344;2022-12-07T04:30:08;94220.38;;;0.76;79.76
37972;BME280;23794;48.234;8.344;2022-12-07T04:32:35;94217.22;;;0.74;79.75
37972;BME280;23794;48.234;8.344;2022-12-07T04:35:03;94213.94;;;0.68;79.96
37972;BME280;23794;48.234;8.344;2022-12-07T04:37:29;94212.72;;;0.66;80.44
37972;BME280;23794;48.234;8.344;2022-12-07T04:39:56;94210.78;;;0.54;80.93
37972;BME280;23794;48.234;8.344;2022-12-07T04:42:23;94210.69;;;0.50;81.44
37972;BME280;23794;48.234;8.344;2022-12-07T04:44:50;94213.16;;;0.55;80.88
37972;BME280;23794;48.234;8.344;2022-12-07T04:47:17;94209.44;;;0.60;80.42
37972;BME280;23794;48.234;8.344;2022-12-07T04:49:44;94206.19;;;0.67;79.54
37972;BME280;23794;48.234;8.344;2022-12-07T04:52:10;94200.81;;;0.67;79.12
37972;BME280;23794;48.234;8.344;2022-12-07T04:54:37;94210.00;;;0.66;78.89
37972;BME280;23794;48.234;8.344;2022-12-07T04:57:04;94202.47;;;0.59;78.79
37972;BME280;23794;48.234;8.344;2022-12-07T04:59:30;94200.47;;;0.56;78.84
37972;BME280;23794;48.234;8.344;2022-12-07T05:01:57;94209.44;;;0.48;78.66
37972;BME280;23794;48.234;8.344;2022-12-07T05:04:24;94206.53;;;0.40;78.88
37972;BME280;23794;48.234;8.344;2022-12-07T05:06:50;94204.38;;;0.34;78.52
37972;BME280;23794;48.234;8.344;2022-12-07T05:09:17;94210.66;;;0.25;78.74
37972;BME280;23794;48.234;8.344;2022-12-07T05:11:44;94214.38;;;0.21;78.53
37972;BME280;23794;48.234;8.344;2022-12-07T05:14:19;94218.72;;;0.13;78.99
37972;BME280;23794;48.234;8.344;2022-12-07T05:16:49;94210.19;;;0.11;79.08
37972;BME280;23794;48.234;8.344;2022-12-07T05:19:17;94220.28;;;0.02;79.31
37972;BME280;23794;48.234;8.344;2022-12-07T05:21:44;94211.75;;;-0.00;78.90
37972;BME280;23794;48.234;8.344;2022-12-07T05:24:12;94212.41;;;-0.03;79.33
37972;BME280;23794;48.234;8.344;2022-12-07T05:26:40;94214.84;;;-0.11;79.35
37972;BME280;23794;48.234;8.344;2022-12-07T05:29:07;94208.88;;;-0.16;79.25
37972;BME280;23794;48.234;8.344;2022-12-07T05:31:36;94220.66;;;-0.21;79.36
37972;BME280;23794;48.234;8.344;2022-12-07T05:34:03;94212.66;;;-0.30;79.10
37972;BME280;23794;48.234;8.344;2022-12-07T05:36:29;94219.25;;;-0.40;79.41
37972;BME280;23794;48.234;8.344;2022-12-07T05:38:58;94215.81;;;-0.49;79.46
37972;BME280;23794;48.234;8.344;2022-12-07T05:41:25;94217.16;;;-0.55;79.64
37972;BME280;23794;48.234;8.344;2022-12-07T05:44:10;94220.69;;;-0.63;79.89
37972;BME280;23794;48.234;8.344;2022-12-07T05:46:37;94214.66;;;-0.60;79.74
37972;BME280;23794;48.234;8.344;2022-12-07T05:49:04;94221.16;;;-0.61;79.92
37972;BME280;23794;48.234;8.344;2022-12-07T05:51:30;94219.59;;;-0.62;79.96
37972;BME280;23794;48.234;8.344;2022-12-07T05:53:57;94225.19;;;-0.67;80.34
37972;BME280;23794;48.234;8.344;2022-12-07T05:56:24;94224.25;;;-0.72;80.04
37972;BME280;23794;48.234;8.344;2022-12-07T05:58:51;94232.31;;;-0.72;79.93
37972;BME280;23794;48.234;8.344;2022-12-07T06:01:36;94224.06;;;-0.88;81.14
37972;BME280;23794;48.234;8.344;2022-12-07T06:04:03;94222.06;;;-0.99;81.52
37972;BME280;23794;48.234;8.344;2022-12-07T06:06:30;94214.13;;;-0.96;80.77
37972;BME280;23794;48.234;8.344;2022-12-07T06:08:57;94214.47;;;-0.97;80.87
37972;BME280;23794;48.234;8.344;2022-12-07T06:11:24;94206.97;;;-0.92;80.07
37972;BME280;23794;48.234;8.344;2022-12-07T06:14:09;94212.09;;;-0.99;79.94
37972;BME280;23794;48.234;8.344;2022-12-07T06:16:36;94208.97;;;-1.01;80.13
37972;BME280;23794;48.234;8.344;2022-12-07T06:19:03;94208.81;;;-1.05;80.16
37972;BME280;23794;48.234;8.344;2022-12-07T06:21:29;94212.28;;;-1.04;80.06
37972;BME280;23794;48.234;8.344;2022-12-07T06:23:56;94221.53;;;-1.14;80.33
37972;BME280;23794;48.234;8.344;2022-12-07T06:26:23;94216.94;;;-1.13;80.50
37972;BME280;23794;48.234;8.344;2022-12-07T06:28:49;94212.09;;;-1.20;81.23
37972;BME280;23794;48.234;8.344;2022-12-07T06:31:16;94216.78;;;-1.17;80.76
37972;BME280;23794;48.234;8.344;2022-12-07T06:33:43;94225.78;;;-1.13;80.23
37972;BME280;23794;48.234;8.344;2022-12-07T06:36:09;94221.06;;;-1.16;80.16
37972;BME280;23794;48.234;8.344;2022-12-07T06:38:36;94217.63;;;-1.25;80.81
37972;BME280;23794;48.234;8.344;2022-12-07T06:41:04;94214.22;;;-1.35;81.81
37972;BME280;23794;48.234;8.344;2022-12-07T06:43:31;94213.88;;;-1.33;81.32
37972;BME280;23794;48.234;8.344;2022-12-07T06:45:58;94223.69;;;-1.37;81.03
37972;BME280;23794;48.234;8.344;2022-12-07T06:48:24;94215.97;;;-1.39;80.75
37972;BME280;23794;48.234;8.344;2022-12-07T06:50:51;94219.00;;;-1.40;80.91
37972;BME280;23794;48.234;8.344;2022-12-07T06:53:21;94224.69;;;-1.42;81.25
37972;BME280;23794;48.234;8.344;2022-12-07T06:55:48;94220.28;;;-1.46;81.37
37972;BME280;23794;48.234;8.344;2022-12-07T06:58:15;94220.44;;;-1.43;81.12
37972;BME280;23794;48.234;8.344;2022-12-07T07:00:41;94223.41;;;-1.36;80.63
37972;BME280;23794;48.234;8.344;2022-12-07T07:03:08;94230.34;;;-1.35;80.45
37972;BME280;23794;48.234;8.344;2022-12-07T07:05:35;94232.38;;;-1.32;80.12
37972;BME280;23794;48.234;8.344;2022-12-07T07:08:02;94232.56;;;-1.37;80.48
37972;BME280;23794;48.234;8.344;2022-12-07T07:10:49;94238.22;;;-1.29;79.97
37972;BME280;23794;48.234;8.344;2022-12-07T07:13:17;94241.09;;;-1.35;79.86
37972;BME280;23794;48.234;8.344;2022-12-07T07:15:43;94238.84;;;-1.33;79.96
37972;BME280;23794;48.234;8.344;2022-12-07T07:18:10;94245.19;;;-1.37;81.15
37972;BME280;23794;48.234;8.344;2022-12-07T07:20:37;94249.56;;;-1.24;80.59
37972;BME280;23794;48.234;8.344;2022-12-07T07:23:04;94245.59;;;-1.18;80.23
37972;BME280;23794;48.234;8.344;2022-12-07T07:25:32;94252.84;;;-1.18;80.12
37972;BME280;23794;48.234;8.344;2022-12-07T07:27:59;94252.34;;;-1.11;79.81
37972;BME280;23794;48.234;8.344;2022-12-07T07:30:26;94248.28;;;-1.18;79.58
37972;BME280;23794;48.234;8.344;2022-12-07T07:33:01;94252.00;;;-1.10;79.69
37972;BME280;23794;48.234;8.344;2022-12-07T07:35:29;94259.06;;;-0.96;79.43
37972;BME280;23794;48.234;8.344;2022-12-07T07:37:56;94252.19;;;-0.85;78.96
37972;BME280;23794;48.234;8.344;2022-12-07T07:40:24;94255.34;;;-0.83;78.63
37972;BME280;23794;48.234;8.344;2022-12-07T07:42:52;94251.47;;;-0.73;78.60
37972;BME280;23794;48.234;8.344;2022-12-07T07:45:21;94257.91;;;-0.65;78.13
37972;BME280;23794;48.234;8.344;2022-12-07T07:47:49;94251.63;;;-0.70;78.45
37972;BME280;23794;48.234;8.344;2022-12-07T07:50:16;94257.38;;;-0.59;78.64
37972;BME280;23794;48.234;8.344;2022-12-07T07:52:44;94264.00;;;-0.56;78.99
37972;BME280;23794;48.234;8.344;2022-12-07T07:55:11;94261.84;;;-0.42;78.79
37972;BME280;23794;48.234;8.344;2022-12-07T07:57:39;94266.63;;;-0.26;78.06
37972;BME280;23794;48.234;8.344;2022-12-07T08:00:09;94270.56;;;-0.24;77.76
37972;BME280;23794;48.234;8.344;2022-12-07T08:02:40;94269.91;;;-0.21;77.68
37972;BME280;23794;48.234;8.344;2022-12-07T08:05:07;94270.38;;;-0.18;77.77
37972;BME280;23794;48.234;8.344;2022-12-07T08:07:34;94270.75;;;-0.08;78.00
37972;BME280;23794;48.234;8.344;2022-12-07T08:10:01;94270.06;;;-0.05;77.89
37972;BME280;23794;48.234;8.344;2022-12-07T08:12:28;94268.88;;;0.05;77.38
37972;BME280;23794;48.234;8.344;2022-12-07T08:14:55;94266.84;;;0.02;77.82
37972;BME280;23794;48.234;8.344;2022-12-07T08:17:22;94262.72;;;0.17;76.85
37972;BME280;23794;48.234;8.344;2022-12-07T08:19:48;94265.69;;;0.24;76.54
37972;BME280;23794;48.234;8.344;2022-12-07T08:22:15;94265.59;;;0.33;76.19
37972;BME280;23794;48.234;8.344;2022-12-07T08:24:42;94266.59;;;0.29;76.47
37972;BME280;23794;48.234;8.344;2022-12-07T08:27:09;94271.09;;;0.37;76.08
37972;BME280;23794;48.234;8.344;2022-12-07T08:29:36;94273.91;;;0.40;76.42
37972;BME280;23794;48.234;8.344;2022-12-07T08:32:03;94275.38;;;0.38;76.20
37972;BME280;23794;48.234;8.344;2022-12-07T08:34:35;94273.72;;;0.58;75.93
37972;BME280;23794;48.234;8.344;2022-12-07T08:37:02;94274.84;;;0.57;75.14
37972;BME280;23794;48.234;8.344;2022-12-07T08:39:29;94269.56;;;0.61;75.25
37972;BME280;23794;48.234;8.344;2022-12-07T08:41:58;94273.50;;;0.76;75.03
37972;BME280;23794;48.234;8.344;2022-12-07T08:44:25;94277.84;;;0.55;75.21
37972;BME280;23794;48.234;8.344;2022-12-07T08:46:58;94265.84;;;0.78;75.32
37972;BME280;23794;48.234;8.344;2022-12-07T08:49:39;94270.25;;;0.95;74.92
37972;BME280;23794;48.234;8.344;2022-12-07T08:52:07;94268.34;;;0.95;73.82
37972;BME280;23794;48.234;8.344;2022-12-07T08:54:36;94266.63;;;1.03;74.65
37972;BME280;23794;48.234;8.344;2022-12-07T08:57:04;94269.91;;;1.09;74.02
37972;BME280;23794;48.234;8.344;2022-12-07T08:59:33;94278.22;;;1.03;73.34
37972;BME280;23794;48.234;8.344;2022-12-07T09:02:01;94275.44;;;1.00;74.00
37972;BME280;23794;48.234;8.344;2022-12-07T09:04:28;94278.22;;;1.03;73.07
37972;BME280;23794;48.234;8.344;2022-12-07T09:06:55;94267.13;;;0.93;73.22
37972;BME280;23794;48.234;8.344;2022-12-07T09:09:22;94275.31;;;0.96;72.99
37972;BME280;23794;48.234;8.344;2022-12-07T09:11:48;94276.31;;;1.04;72.71
37972;BME280;23794;48.234;8.344;2022-12-07T09:14:15;94269.78;;;1.17;72.56
37972;BME280;23794;48.234;8.344;2022-12-07T09:16:42;94266.63;;;1.28;72.23
37972;BME280;23794;48.234;8.344;2022-12-07T09:19:08;94275.28;;;1.33;72.02
37972;BME280;23794;48.234;8.344;2022-12-07T09:21:35;94279.09;;;1.32;72.37
37972;BME280;23794;48.234;8.344;2022-12-07T09:24:02;94273.81;;;1.36;71.46
37972;BME280;23794;48.234;8.344;2022-12-07T09:26:29;94276.16;;;1.37;72.15
37972;BME280;23794;48.234;8.344;2022-12-07T09:28:55;94277.38;;;1.52;71.77
37972;BME280;23794;48.234;8.344;2022-12-07T09:31:22;94282.78;;;1.52;71.56
37972;BME280;23794;48.234;8.344;2022-12-07T09:33:59;94276.72;;;1.43;69.88
37972;BME280;23794;48.234;8.344;2022-12-07T09:36:27;94276.22;;;1.66;70.45
37972;BME280;23794;48.234;8.344;2022-12-07T09:38:55;94267.28;;;1.78;68.13
37972;BME280;23794;48.234;8.344;2022-12-07T09:41:23;94271.13;;;2.05;69.66
37972;BME280;23794;48.234;8.344;2022-12-07T09:43:51;94259.38;;;2.13;67.74
37972;BME280;23794;48.234;8.344;2022-12-07T09:46:20;94264.25;;;2.08;66.51
37972;BME280;23794;48.234;8.344;2022-12-07T09:48:48;94268.66;;;2.00;67.24
37972;BME280;23794;48.234;8.344;2022-12-07T09:51:19;94265.72;;;2.05;66.25
37972;BME280;23794;48.234;8.344;2022-12-07T09:53:54;94259.66;;;2.24;67.51
37972;BME280;23794;48.234;8.344;2022-12-07T09:56:23;94252.78;;;2.43;65.93
37972;BME280;23794;48.234;8.344;2022-12-07T09:59:00;94250.44;;;2.57;63.96
37972;BME280;23794;48.234;8.344;2022-12-07T10:01:30;94255.25;;;2.64;63.43
37972;BME280;23794;48.234;8.344;2022-12-07T10:06:27;94255.34;;;3.00;65.52
37972;BME280;23794;48.234;8.344;2022-12-07T10:08:54;94246.41;;;2.99;64.11
37972;BME280;23794;48.234;8.344;2022-12-07T10:11:21;94239.56;;;2.70;63.67
37972;BME280;23794;48.234;8.344;2022-12-07T10:13:51;94237.19;;;2.68;63.46
37972;BME280;23794;48.234;8.344;2022-12-07T10:16:37;94239.13;;;2.68;63.75
37972;BME280;23794;48.234;8.344;2022-12-07T10:19:40;94235.53;;;2.79;63.15
37972;BME280;23794;48.234;8.344;2022-12-07T10:22:11;94234.16;;;2.70;63.20
37972;BME280;23794;48.234;8.344;2022-12-07T10:24:42;94226.19;;;2.77;63.68
37972;BME280;23794;48.234;8.344;2022-12-07T10:27:26;94223.56;;;2.64;62.26
37972;BME280;23794;48.234;8.344;2022-12-07T10:29:57;94214.84;;;2.71;63.45
37972;BME280;23794;48.234;8.344;2022-12-07T10:32:32;94217.84;;;2.66;62.13
37972;BME280;23794;48.234;8.344;2022-12-07T10:37:46;94207.13;;;3.05;63.33
37972;BME280;23794;48.234;8.344;2022-12-07T10:40:36;94213.66;;;3.20;61.48
37972;BME280;23794;48.234;8.344;2022-12-07T10:54:27;94189.78;;;3.65;62.94
37972;BME280;23794;48.234;8.344;2022-12-07T10:59:59;94185.19;;;3.66;61.20
37972;BME280;23794;48.234;8.344;2022-12-07T11:05:30;94173.97;;;3.67;60.37
37972;BME280;23794;48.234;8.344;2022-12-07T11:13:59;94173.41;;;3.38;59.66
37972;BME280;23794;48.234;8.344;2022-12-07T11:29:57;94168.72;;;3.55;60.66
37972;BME280;23794;48.234;8.344;2022-12-07T11:32:53;94167.38;;;3.45;61.28
37972;BME280;23794;48.234;8.344;2022-12-07T11:37:57;94171.84;;;3.57;63.56
37972;BME280;23794;48.234;8.344;2022-12-07T11:40:33;94162.88;;;3.33;62.55
37972;BME280;23794;48.234;8.344;2022-12-07T11:46:12;94156.59;;;3.49;63.52
37972;BME280;23794;48.234;8.344;2022-12-07T11:48:55;94147.63;;;3.25;63.91
37972;BME280;23794;48.234;8.344;2022-12-07T11:51:25;94143.47;;;3.31;64.19
37972;BME280;23794;48.234;8.344;2022-12-07T11:54:02;94150.09;;;3.14;63.62
37972;BME280;23794;48.234;8.344;2022-12-07T11:56:30;94146.50;;;3.10;63.44
37972;BME280;23794;48.234;8.344;2022-12-07T11:59:17;94146.00;;;3.04;64.37
37972;BME280;23794;48.234;8.344;2022-12-07T12:01:51;94147.81;;;3.16;64.06
37972;BME280;23794;48.234;8.344;2022-12-07T12:04:41;94138.84;;;3.12;63.90
37972;BME280;23794;48.234;8.344;2022-12-07T12:07:17;94133.19;;;3.01;63.99
37972;BME280;23794;48.234;8.344;2022-12-07T12:18:42;94122.00;;;3.03;64.42
37972;BME280;23794;48.234;8.344;2022-12-07T12:21:16;94125.16;;;3.05;64.60
37972;BME280;23794;48.234;8.344;2022-12-07T12:23:50;94117.25;;;2.96;64.50
37972;BME280;23794;48.234;8.344;2022-12-07T12:26:21;94117.31;;;3.00;65.21
37972;BME280;23794;48.234;8.344;2022-12-07T12:28:56;94107.63;;;2.99;64.78
37972;BME280;23794;48.234;8.344;2022-12-07T12:31:40;94114.88;;;2.94;64.67
37972;BME280;23794;48.234;8.344;2022-12-07T12:36:56;94118.09;;;3.00;64.95
37972;BME280;23794;48.234;8.344;2022-12-07T12:39:23;94121.81;;;3.11;64.28
37972;BME280;23794;48.234;8.344;2022-12-07T12:41:51;94116.22;;;3.04;64.70
37972;BME280;23794;48.234;8.344;2022-12-07T12:47:00;94107.22;;;3.36;64.14
37972;BME280;23794;48.234;8.344;2022-12-07T12:57:36;94103.72;;;3.16;63.69
37972;BME280;23794;48.234;8.344;2022-12-07T13:02:51;94095.03;;;3.26;63.58
37972;BME280;23794;48.234;8.344;2022-12-07T13:05:21;94097.53;;;3.15;62.99
37972;BME280;23794;48.234;8.344;2022-12-07T13:15:36;94093.50;;;2.89;61.78
37972;BME280;23794;48.234;8.344;2022-12-07T13:23:19;94080.63;;;3.02;63.24
37972;BME280;23794;48.234;8.344;2022-12-07T13:28:47;94071.94;;;3.12;63.43
37972;BME280;23794;48.234;8.344;2022-12-07T13:31:31;94074.38;;;3.18;62.41
37972;BME280;23794;48.234;8.344;2022-12-07T13:34:00;94069.88;;;3.25;62.95
37972;BME280;23794;48.234;8.344;2022-12-07T13:36:33;94068.53;;;3.16;62.25
37972;BME280;23794;48.234;8.344;2022-12-07T13:41:42;94070.38;;;2.92;62.15
37972;BME280;23794;48.234;8.344;2022-12-07T13:44:11;94070.94;;;3.01;62.65
37972;BME280;23794;48.234;8.344;2022-12-07T13:49:26;94063.03;;;3.12;61.97
37972;BME280;23794;48.234;8.344;2022-12-07T13:51:54;94065.09;;;2.99;62.36
37972;BME280;23794;48.234;8.344;2022-12-07T13:54:22;94060.81;;;2.98;62.06
37972;BME280;23794;48.234;8.344;2022-12-07T13:56:51;94062.25;;;2.92;61.99
37972;BME280;23794;48.234;8.344;2022-12-07T13:59:23;94072.63;;;2.90;63.69
37972;BME280;23794;48.234;8.344;2022-12-07T14:01:53;94057.63;;;2.92;62.74
37972;BME280;23794;48.234;8.344;2022-12-07T14:04:40;94060.81;;;2.78;63.24
37972;BME280;23794;48.234;8.344;2022-12-07T14:07:27;94059.19;;;2.74;63.15
37972;BME280;23794;48.234;8.344;2022-12-07T14:10:00;94062.66;;;2.74;63.08
37972;BME280;23794;48.234;8.344;2022-12-07T14:12:29;94071.25;;;2.60;63.18
37972;BME280;23794;48.234;8.344;2022-12-07T14:14:58;94063.16;;;2.60;63.47
37972;BME280;23794;48.234;8.344;2022-12-07T14:17:28;94061.72;;;2.67;62.76
37972;BME280;23794;48.234;8.344;2022-12-07T14:20:00;94063.16;;;2.60;62.89
37972;BME280;23794;48.234;8.344;2022-12-07T14:25:21;94057.13;;;2.31;62.51
37972;BME280;23794;48.234;8.344;2022-12-07T14:27:56;94050.66;;;2.20;62.99
37972;BME280;23794;48.234;8.344;2022-12-07T14:30:30;94052.22;;;2.21;63.56
37972;BME280;23794;48.234;8.344;2022-12-07T14:33:03;94056.06;;;2.20;62.79
37972;BME280;23794;48.234;8.344;2022-12-07T14:35:32;94059.28;;;2.26;64.47
37972;BME280;23794;48.234;8.344;2022-12-07T14:37:59;94057.03;;;2.28;64.87
37972;BME280;23794;48.234;8.344;2022-12-07T14:40:28;94049.00;;;2.31;64.20
37972;BME280;23794;48.234;8.344;2022-12-07T14:43:05;94048.81;;;2.40;65.07
37972;BME280;23794;48.234;8.344;2022-12-07T14:45:33;94059.78;;;2.47;64.56
37972;BME280;23794;48.234;8.344;2022-12-07T14:48:03;94047.09;;;2.52;65.22
37972;BME280;23794;48.234;8.344;2022-12-07T14:50:52;94049.81;;;2.52;65.00
37972;BME280;23794;48.234;8.344;2022-12-07T14:53:44;94052.44;;;2.48;64.72
37972;BME280;23794;48.234;8.344;2022-12-07T14:56:18;94049.69;;;2.28;64.63
37972;BME280;23794;48.234;8.344;2022-12-07T14:58:45;94051.25;;;2.29;65.20
37972;BME280;23794;48.234;8.344;2022-12-07T15:01:14;94052.47;;;2.32;64.78
37972;BME280;23794;48.234;8.344;2022-12-07T15:03:41;94058.59;;;2.13;65.93
37972;BME280;23794;48.234;8.344;2022-12-07T15:06:12;94052.75;;;2.11;65.68
37972;BME280;23794;48.234;8.344;2022-12-07T15:08:39;94054.97;;;2.05;65.51
37972;BME280;23794;48.234;8.344;2022-12-07T15:11:06;94056.59;;;2.10;65.51
37972;BME280;23794;48.234;8.344;2022-12-07T15:13:33;94057.38;;;2.10;66.17
37972;BME280;23794;48.234;8.344;2022-12-07T15:16:19;94057.13;;;2.15;66.01
37972;BME280;23794;48.234;8.344;2022-12-07T15:18:47;94052.34;;;2.09;65.61
37972;BME280;23794;48.234;8.344;2022-12-07T15:21:34;94048.50;;;1.94;65.89
37972;BME280;23794;48.234;8.344;2022-12-07T15:24:00;94052.34;;;1.77;66.49
37972;BME280;23794;48.234;8.344;2022-12-07T15:26:27;94053.28;;;1.52;66.53
37972;BME280;23794;48.234;8.344;2022-12-07T15:28:54;94063.69;;;1.38;66.52